createdAt,value
2022-10-05T00:02:21.592Z,99877.88
2022-10-05T00:05:22.737Z,99878.78
2022-10-05T00:08:16.786Z,99877.19
2022-10-05T00:11:04.430Z,99879.75
2022-10-05T00:13:52.873Z,99883.13
2022-10-05T00:16:41.637Z,99889.06
2022-10-05T00:19:33.733Z,99879.63
2022-10-05T00:22:25.109Z,99878.00
2022-10-05T00:25:16.803Z,99874.50
2022-10-05T00:28:04.317Z,99874.50
2022-10-05T00:30:51.505Z,99874.50
2022-10-05T00:33:41.911Z,99872.03
2022-10-05T00:36:29.012Z,99880.66
2022-10-05T00:39:16.320Z,99882.50
2022-10-05T00:42:29.596Z,99874.09
2022-10-05T00:45:23.078Z,99874.31
2022-10-05T00:48:19.990Z,99867.53
2022-10-05T00:51:25.744Z,99860.75
2022-10-05T00:54:27.463Z,99866.00
2022-10-05T00:57:30.352Z,99858.41
2022-10-05T01:00:20.910Z,99859.31
2022-10-05T01:03:14.317Z,99855.09
2022-10-05T01:06:12.868Z,99850.09
2022-10-05T01:09:10.808Z,99839.00
2022-10-05T01:12:05.405Z,99838.16
2022-10-05T01:14:59.263Z,99823.84
2022-10-05T01:17:55.783Z,99830.00
2022-10-05T01:20:55.460Z,99836.94
2022-10-05T01:24:36.844Z,99836.31
2022-10-05T01:27:46.318Z,99832.31
2022-10-05T01:30:41.150Z,99834.09
2022-10-05T01:33:35.601Z,99827.41
2022-10-05T01:36:33.161Z,99836.75
2022-10-05T01:39:29.260Z,99840.22
2022-10-05T01:42:34.156Z,99833.38
2022-10-05T01:45:30.651Z,99845.56
2022-10-05T01:48:26.379Z,99852.53
2022-10-05T01:51:23.688Z,99849.16
2022-10-05T01:54:23.377Z,99848.34
2022-10-05T01:57:24.083Z,99851.84
2022-10-05T02:00:13.616Z,99856.13
2022-10-05T02:03:15.130Z,99851.84
2022-10-05T02:06:08.491Z,99847.50
2022-10-05T02:09:04.048Z,99851.72
2022-10-05T02:11:58.737Z,99856.03
2022-10-05T02:14:50.919Z,99847.41
2022-10-05T02:17:45.674Z,99845.78
2022-10-05T02:20:38.828Z,99849.25
2022-10-05T02:23:33.278Z,99840.72
2022-10-05T02:26:21.463Z,99834.78
2022-10-05T02:29:11.893Z,99830.59
2022-10-05T02:32:04.253Z,99816.03
2022-10-05T02:34:53.863Z,99804.94
2022-10-05T02:37:58.678Z,99800.66
2022-10-05T02:40:57.004Z,99797.25
2022-10-05T02:44:00.226Z,99784.44
2022-10-05T02:46:57.470Z,99782.72
2022-10-05T02:49:53.515Z,99785.38
2022-10-05T02:52:54.640Z,99787.97
2022-10-05T02:55:56.357Z,99789.97
2022-10-05T02:58:57.898Z,99787.56
2022-10-05T03:01:51.051Z,99786.06
2022-10-05T03:04:44.171Z,99789.53
2022-10-05T03:07:38.253Z,99787.09
2022-10-05T03:10:36.262Z,99782.25
2022-10-05T03:13:31.537Z,99791.16
2022-10-05T03:16:39.531Z,99774.34
2022-10-05T03:19:48.895Z,99776.28
2022-10-05T03:22:52.247Z,99776.22
2022-10-05T03:26:20.196Z,99754.88
2022-10-05T03:29:25.205Z,99760.00
2022-10-05T03:32:22.452Z,99754.06
2022-10-05T03:35:16.038Z,99760.00
2022-10-05T03:38:13.034Z,99753.16
2022-10-05T03:41:12.884Z,99764.31
2022-10-05T03:44:30.468Z,99775.38
2022-10-05T03:47:30.543Z,99776.22
2022-10-05T03:50:35.113Z,99784.81
2022-10-05T03:53:25.441Z,99784.81
2022-10-05T03:56:23.675Z,99786.53
2022-10-05T03:59:16.930Z,99781.50
2022-10-05T04:02:08.657Z,99788.72
2022-10-05T04:05:02.081Z,99784.69
2022-10-05T04:07:53.716Z,99787.44
2022-10-05T04:10:48.096Z,99787.44
2022-10-05T04:13:41.715Z,99784.78
2022-10-05T04:16:36.961Z,99781.31
2022-10-05T04:19:29.076Z,99790.66
2022-10-05T04:22:23.036Z,99779.47
2022-10-05T04:25:18.982Z,99780.19
2022-10-05T04:28:17.422Z,99783.59
2022-10-05T04:31:08.496Z,99781.03
2022-10-05T04:34:01.707Z,99784.50
2022-10-05T04:36:58.794Z,99782.97
2022-10-05T04:39:54.189Z,99789.72
2022-10-05T04:42:51.334Z,99788.06
2022-10-05T04:46:00.531Z,99788.88
2022-10-05T04:49:42.521Z,99781.41
2022-10-05T04:52:40.967Z,99783.97
2022-10-05T04:55:39.038Z,99785.72
2022-10-05T04:58:42.773Z,99781.50
2022-10-05T05:01:53.028Z,99790.00
2022-10-05T05:05:08.660Z,99785.78
2022-10-05T05:08:11.098Z,99791.66
2022-10-05T05:11:16.213Z,99794.31
2022-10-05T05:14:58.671Z,99796.88
2022-10-05T05:18:32.344Z,99799.44
2022-10-05T05:21:34.693Z,99801.91
2022-10-05T05:24:36.762Z,99808.78
2022-10-05T05:28:11.425Z,99807.94
2022-10-05T05:31:09.855Z,99813.91
2022-10-05T05:34:07.909Z,99817.28
2022-10-05T05:37:06.227Z,99824.16
2022-10-05T05:40:06.184Z,99834.41
2022-10-05T05:43:00.709Z,99831.00
2022-10-05T05:45:58.630Z,99833.56
2022-10-05T05:48:48.713Z,99841.16
2022-10-05T05:51:40.863Z,99836.88
2022-10-05T05:54:35.193Z,99836.88
2022-10-05T05:57:29.225Z,99844.56
2022-10-05T06:00:23.556Z,99847.13
2022-10-05T06:03:24.058Z,99845.47
2022-10-05T06:05:58.399Z,99847.13
2022-10-05T06:08:37.688Z,99847.13
2022-10-05T06:11:23.879Z,99843.53
2022-10-05T06:13:53.340Z,99846.91
2022-10-05T06:16:26.887Z,99852.78
2022-10-05T06:18:59.022Z,99851.81
2022-10-05T06:21:34.366Z,99855.13
2022-10-05T06:24:10.110Z,99856.84
2022-10-05T06:27:19.954Z,99856.84
2022-10-05T06:30:05.286Z,99860.25
2022-10-05T06:32:47.822Z,99855.81
2022-10-05T06:35:32.356Z,99854.91
2022-10-05T06:38:25.723Z,99855.72
2022-10-05T06:41:09.243Z,99863.34
2022-10-05T06:43:51.385Z,99867.63
2022-10-05T06:46:42.557Z,99860.03
2022-10-05T06:49:45.952Z,99860.84
2022-10-05T06:52:52.382Z,99858.22
2022-10-05T06:55:31.889Z,99863.13
2022-10-05T06:58:20.911Z,99861.22
2022-10-05T07:00:55.633Z,99859.44
2022-10-05T07:03:43.814Z,99855.97
2022-10-05T07:06:18.178Z,99855.88
2022-10-05T07:09:07.545Z,99854.13
2022-10-05T07:12:03.588Z,99853.22
2022-10-05T07:14:59.110Z,99842.03
2022-10-05T07:17:46.303Z,99852.09
2022-10-05T07:20:20.398Z,99849.50
2022-10-05T07:23:19.779Z,99851.06
2022-10-05T07:25:57.491Z,99853.53
2022-10-05T07:28:34.836Z,99855.06
2022-10-05T07:31:12.521Z,99854.97
2022-10-05T07:33:52.962Z,99858.25
2022-10-05T07:36:55.045Z,99850.28
2022-10-05T07:39:58.490Z,99851.84
2022-10-05T07:42:40.516Z,99859.19
2022-10-05T07:45:24.667Z,99857.28
2022-10-05T07:47:57.217Z,99856.13
2022-10-05T07:50:36.875Z,99860.16
2022-10-05T07:53:16.432Z,99853.88
2022-10-05T07:55:51.383Z,99855.31
2022-10-05T07:58:28.952Z,99852.34
2022-10-05T08:01:09.801Z,99857.97
2022-10-05T08:03:52.267Z,99854.19
2022-10-05T08:06:50.146Z,99863.22
2022-10-05T08:09:34.062Z,99862.78
2022-10-05T08:12:32.183Z,99859.09
2022-10-05T08:15:07.372Z,99860.50
2022-10-05T08:17:49.794Z,99855.19
2022-10-05T08:20:31.006Z,99850.53
2022-10-05T08:23:07.366Z,99839.97
2022-10-05T08:25:47.651Z,99837.06
2022-10-05T08:28:23.157Z,99835.81
2022-10-05T08:30:59.501Z,99833.66
2022-10-05T08:33:35.905Z,99828.00
2022-10-05T08:36:11.807Z,99830.06
2022-10-05T08:38:43.429Z,99834.63
2022-10-05T08:42:18.517Z,99823.69
2022-10-05T08:45:24.832Z,99827.38
2022-10-05T08:48:29.331Z,99831.84
2022-10-05T08:51:35.643Z,99825.09
2022-10-05T08:54:33.305Z,99830.16
2022-10-05T08:57:47.603Z,99830.34
2022-10-05T09:00:21.239Z,99832.13
2022-10-05T09:03:20.247Z,99828.66
2022-10-05T09:06:36.253Z,99815.69
2022-10-05T09:09:32.215Z,99820.03
2022-10-05T09:12:41.497Z,99823.44
2022-10-05T09:15:43.624Z,99819.13
2022-10-05T09:18:50.981Z,99824.94
2022-10-05T09:21:42.974Z,99818.97
2022-10-05T09:24:30.023Z,99812.06
2022-10-05T09:27:10.743Z,99821.44
2022-10-05T09:30:21.868Z,99828.19
2022-10-05T09:33:45.613Z,99827.94
2022-10-05T09:37:06.993Z,99824.97
2022-10-05T09:40:24.219Z,99817.66
2022-10-05T09:43:12.382Z,99821.41
2022-10-05T09:46:33.013Z,99822.81
2022-10-05T09:49:35.317Z,99823.31
2022-10-05T09:52:38.319Z,99817.13
2022-10-05T09:55:44.323Z,99817.63
2022-10-05T09:59:13.952Z,99804.75
2022-10-05T10:02:05.786Z,99805.84
2022-10-05T10:05:13.515Z,99809.81
2022-10-05T10:08:01.504Z,99805.59
2022-10-05T10:11:01.546Z,99803.28
2022-10-05T10:14:09.480Z,99806.41
2022-10-05T10:17:07.992Z,99798.22
2022-10-05T10:20:24.665Z,99787.84
2022-10-05T10:23:24.626Z,99797.88
2022-10-05T10:26:30.521Z,99798.34
2022-10-05T10:29:45.995Z,99801.47
2022-10-05T10:32:48.359Z,99800.09
2022-10-05T10:35:36.276Z,99793.66
2022-10-05T10:38:38.136Z,99797.56
2022-10-05T10:41:54.345Z,99797.09
2022-10-05T10:44:58.977Z,99800.22
2022-10-05T10:47:50.871Z,99790.94
2022-10-05T10:50:53.455Z,99794.56
2022-10-05T10:54:03.594Z,99791.31
2022-10-05T10:57:04.458Z,99788.16
2022-10-05T11:00:28.660Z,99791.81
2022-10-05T11:03:35.707Z,99786.91
2022-10-05T11:06:28.104Z,99782.69
2022-10-05T11:09:29.707Z,99783.63
2022-10-05T11:12:44.796Z,99773.56
2022-10-05T11:16:04.320Z,99784.00
2022-10-05T11:18:58.762Z,99772.88
2022-10-05T11:21:36.714Z,99774.50
2022-10-05T11:24:43.580Z,99765.97
2022-10-05T11:27:51.327Z,99774.63
2022-10-05T11:30:37.597Z,99773.69
2022-10-05T11:33:53.921Z,99767.72
2022-10-05T11:36:48.908Z,99760.00
2022-10-05T11:39:45.003Z,99765.97
2022-10-05T11:42:54.849Z,99759.16
2022-10-05T11:45:46.977Z,99757.41
2022-10-05T11:48:37.905Z,99757.41
2022-10-05T11:51:30.330Z,99750.63
2022-10-05T11:54:19.147Z,99750.63
2022-10-05T11:56:54.901Z,99730.94
2022-10-05T11:59:31.629Z,99740.31
2022-10-05T12:02:51.332Z,99718.97
2022-10-05T12:05:24.074Z,99717.09
2022-10-05T12:08:11.196Z,99718.75
2022-10-05T12:10:52.829Z,99710.03
2022-10-05T12:13:35.067Z,99709.13
2022-10-05T12:16:13.586Z,99707.34
2022-10-05T12:18:55.202Z,99702.19
2022-10-05T12:21:35.155Z,99703.81
2022-10-05T12:24:10.815Z,99707.09
2022-10-05T12:26:45.838Z,99701.13
2022-10-05T12:29:19.891Z,99698.53
2022-10-05T12:32:00.111Z,99695.97
2022-10-05T12:34:43.312Z,99693.38
2022-10-05T12:37:33.599Z,99693.38
2022-10-05T12:40:07.271Z,99689.75
2022-10-05T12:42:42.293Z,99687.03
2022-10-05T12:45:24.391Z,99689.47
2022-10-05T12:48:19.856Z,99687.59
2022-10-05T12:50:52.110Z,99679.72
2022-10-05T12:53:38.119Z,99682.19
2022-10-05T12:56:13.152Z,99681.09
2022-10-05T12:58:53.899Z,99676.78
2022-10-05T13:01:35.107Z,99675.94
2022-10-05T13:04:21.159Z,99677.59
2022-10-05T13:07:09.778Z,99678.41
2022-10-05T13:09:43.964Z,99672.31
2022-10-05T13:12:26.018Z,99674.78
2022-10-05T13:15:03.165Z,99673.03
2022-10-05T13:17:42.725Z,99664.19
2022-10-05T13:20:22.337Z,99657.16
2022-10-05T13:23:03.601Z,99661.13
2022-10-05T13:25:37.075Z,99657.59
2022-10-05T13:28:16.709Z,99659.25
2022-10-05T13:31:02.238Z,99652.31
2022-10-05T13:33:59.602Z,99661.69
2022-10-05T13:36:43.636Z,99659.91
2022-10-05T13:39:30.135Z,99653.69
2022-10-05T13:42:05.908Z,99651.09
2022-10-05T13:44:43.818Z,99650.84
2022-10-05T13:47:22.415Z,99654.91
2022-10-05T13:49:56.831Z,99648.81
2022-10-05T13:52:48.206Z,99641.09
2022-10-05T13:55:35.032Z,99641.09
2022-10-05T13:58:15.087Z,99641.09
2022-10-05T14:00:52.242Z,99641.09
2022-10-05T14:03:31.021Z,99641.09
2022-10-05T14:06:02.031Z,99644.34
2022-10-05T14:08:35.873Z,99638.25
2022-10-05T14:11:23.381Z,99633.06
2022-10-05T14:13:53.152Z,99633.91
2022-10-05T14:16:24.936Z,99626.03
2022-10-05T14:18:59.907Z,99632.94
2022-10-05T14:21:32.204Z,99633.78
2022-10-05T14:24:42.340Z,99632.13
2022-10-05T14:27:25.806Z,99626.97
2022-10-05T14:29:59.875Z,99627.91
2022-10-05T14:32:32.917Z,99620.88
2022-10-05T14:35:15.203Z,99625.06
2022-10-05T14:37:57.247Z,99624.25
2022-10-05T14:40:32.386Z,99619.91
2022-10-05T14:43:17.044Z,99626.72
2022-10-05T14:45:56.641Z,99615.59
2022-10-05T14:48:28.467Z,99613.81
2022-10-05T14:51:03.267Z,99611.09
2022-10-05T14:53:41.846Z,99612.72
2022-10-05T14:56:42.850Z,99612.06
2022-10-05T15:00:05.123Z,99605.41
2022-10-05T15:03:10.104Z,99611.50
2022-10-05T15:05:44.404Z,99610.56
2022-10-05T15:08:37.949Z,99615.72
2022-10-05T15:11:09.262Z,99613.94
2022-10-05T15:13:43.460Z,99607.84
2022-10-05T15:16:21.001Z,99608.66
2022-10-05T15:18:58.763Z,99602.53
2022-10-05T15:21:55.325Z,99596.44
2022-10-05T15:24:27.986Z,99607.72
2022-10-05T15:26:59.836Z,99601.59
2022-10-05T15:29:57.732Z,99612.88
2022-10-05T15:32:42.725Z,99605.13
2022-10-05T15:35:47.038Z,99607.84
2022-10-05T15:38:22.028Z,99610.28
2022-10-05T15:41:01.268Z,99608.66
2022-10-05T15:44:10.938Z,99600.25
2022-10-05T15:46:57.721Z,99601.97
2022-10-05T15:49:38.085Z,99601.19
2022-10-05T15:52:23.367Z,99596.03
2022-10-05T15:55:24.066Z,99601.97
2022-10-05T15:58:08.450Z,99589.09
2022-10-05T16:00:43.444Z,99598.59
2022-10-05T16:03:24.425Z,99597.66
2022-10-05T16:06:14.953Z,99598.59
2022-10-05T16:09:11.019Z,99595.31
2022-10-05T16:11:54.845Z,99597.09
2022-10-05T16:14:35.407Z,99587.59
2022-10-05T16:17:22.117Z,99585.97
2022-10-05T16:20:07.858Z,99587.59
2022-10-05T16:22:44.556Z,99580.81
2022-10-05T16:25:23.351Z,99584.34
2022-10-05T16:28:20.266Z,99586.22
2022-10-05T16:31:00.213Z,99585.53
2022-10-05T16:33:46.648Z,99586.22
2022-10-05T16:36:31.843Z,99592.34
2022-10-05T16:39:07.121Z,99593.28
2022-10-05T16:41:45.596Z,99601.84
2022-10-05T16:44:24.789Z,99601.03
2022-10-05T16:47:00.776Z,99606.19
2022-10-05T16:49:40.308Z,99605.34
2022-10-05T16:52:15.248Z,99611.34
2022-10-05T16:54:48.621Z,99608.75
2022-10-05T16:57:22.691Z,99617.44
2022-10-05T17:00:20.857Z,99620.16
2022-10-05T17:03:26.061Z,99622.88
2022-10-05T17:06:38.295Z,99626.38
2022-10-05T17:09:36.816Z,99632.63
2022-10-05T17:12:31.399Z,99632.75
2022-10-05T17:15:16.174Z,99632.75
2022-10-05T17:18:18.004Z,99634.63
2022-10-05T17:20:52.597Z,99638.84
2022-10-05T17:23:43.657Z,99636.41
2022-10-05T17:26:56.497Z,99633.16
2022-10-05T17:29:33.200Z,99642.63
2022-10-05T17:32:12.165Z,99645.22
2022-10-05T17:35:18.491Z,99652.16
2022-10-05T17:38:17.927Z,99647.13
2022-10-05T17:41:28.261Z,99664.34
2022-10-05T17:44:24.939Z,99669.63
2022-10-05T17:46:59.345Z,99669.63
2022-10-05T17:50:18.166Z,99677.38
2022-10-05T17:53:39.744Z,99683.56
2022-10-05T17:56:09.321Z,99694.72
2022-10-05T17:58:59.287Z,99698.00
2022-10-05T18:01:37.096Z,99692.69
2022-10-05T18:04:39.656Z,99702.22
2022-10-05T18:07:24.613Z,99704.78
2022-10-05T18:10:20.557Z,99700.44
2022-10-05T18:13:14.216Z,99711.72
2022-10-05T18:15:48.694Z,99715.91
2022-10-05T18:18:57.298Z,99725.41
2022-10-05T18:21:35.915Z,99726.22
2022-10-05T18:24:38.880Z,99731.50
2022-10-05T18:27:34.283Z,99734.09
2022-10-05T18:30:21.026Z,99747.81
2022-10-05T18:33:51.658Z,99750.59
2022-10-05T18:36:45.583Z,99749.78
2022-10-05T18:39:42.259Z,99756.59
2022-10-05T18:42:22.915Z,99756.59
2022-10-05T18:44:56.949Z,99758.25
2022-10-05T18:47:34.757Z,99778.88
2022-10-05T18:50:28.080Z,99778.88
2022-10-05T18:53:13.459Z,99788.34
2022-10-05T18:55:47.977Z,99789.19
2022-10-05T18:58:27.721Z,99779.72
2022-10-05T19:01:17.978Z,99789.19
2022-10-05T19:04:04.652Z,99789.28
2022-10-05T19:06:43.393Z,99791.84
2022-10-05T19:09:30.512Z,99800.44
2022-10-05T19:12:11.848Z,99796.22
2022-10-05T19:14:54.285Z,99791.84
2022-10-05T19:17:27.288Z,99804.66
2022-10-05T19:20:18.077Z,99807.47
2022-10-05T19:23:12.138Z,99807.47
2022-10-05T19:25:47.527Z,99813.56
2022-10-05T19:28:29.457Z,99810.97
2022-10-05T19:31:21.383Z,99821.28
2022-10-05T19:34:16.521Z,99825.66
2022-10-05T19:37:00.374Z,99827.41
2022-10-05T19:39:40.995Z,99830.00
2022-10-05T19:42:44.676Z,99831.72
2022-10-05T19:45:22.913Z,99826.72
2022-10-05T19:48:08.729Z,99830.13
2022-10-05T19:50:39.959Z,99825.78
2022-10-05T19:53:17.151Z,99830.94
2022-10-05T19:55:47.658Z,99837.72
2022-10-05T19:58:22.279Z,99839.34
2022-10-05T20:00:58.203Z,99841.13
2022-10-05T20:03:49.168Z,99840.31
2022-10-05T20:06:37.125Z,99853.19
2022-10-05T20:09:25.677Z,99856.72
2022-10-05T20:12:15.312Z,99866.22
2022-10-05T20:15:29.118Z,99868.91
2022-10-05T20:18:57.076Z,99875.94
2022-10-05T20:21:50.753Z,99882.03
2022-10-05T20:24:51.988Z,99888.97
2022-10-05T20:27:49.908Z,99882.16
2022-10-05T20:30:36.875Z,99898.56
2022-10-05T20:33:27.310Z,99889.09
2022-10-05T20:36:14.414Z,99896.84
2022-10-05T20:39:01.517Z,99895.19
2022-10-05T20:41:48.893Z,99890.84
2022-10-05T20:44:37.959Z,99895.19
2022-10-05T20:47:25.563Z,99907.25
2022-10-05T20:50:12.980Z,99912.41
2022-10-05T20:53:00.411Z,99915.22
2022-10-05T20:55:47.568Z,99928.97
2022-10-05T20:58:34.573Z,99929.88
2022-10-05T21:01:26.708Z,99929.88
2022-10-05T21:04:13.758Z,99927.44
2022-10-05T21:07:02.773Z,99931.75
2022-10-05T21:09:50.956Z,99932.72
2022-10-05T21:12:38.173Z,99941.25
2022-10-05T21:15:25.698Z,99947.22
2022-10-05T21:18:15.762Z,99947.22
2022-10-05T21:21:02.888Z,99950.78
2022-10-05T21:23:51.284Z,99953.34
2022-10-05T21:26:38.448Z,99949.94
2022-10-05T21:29:25.613Z,99950.06
2022-10-05T21:32:12.630Z,99950.97
2022-10-05T21:35:04.103Z,99962.13
2022-10-05T21:37:51.609Z,99965.66
2022-10-05T21:40:38.963Z,99964.81
2022-10-05T21:43:26.514Z,99975.13
2022-10-05T21:46:17.269Z,99974.31
2022-10-05T21:49:04.947Z,99982.97
2022-10-05T21:51:53.283Z,99982.16
2022-10-05T21:54:40.801Z,99992.47
2022-10-05T21:57:28.065Z,99990.84
2022-10-05T22:00:16.703Z,99988.38
2022-10-05T22:03:04.034Z,99997.88
2022-10-05T22:05:51.321Z,99987.56
2022-10-05T22:08:39.763Z,99997.88
2022-10-05T22:11:28.022Z,99995.44
2022-10-05T22:14:16.767Z,99999.75
2022-10-05T22:17:04.372Z,100002.31
2022-10-05T22:19:51.644Z,100005.03
2022-10-05T22:22:38.893Z,100009.25
2022-10-05T22:25:27.929Z,100017.91
2022-10-05T22:28:17.419Z,100012.75
2022-10-05T22:31:06.789Z,100030.09
2022-10-05T22:33:53.958Z,100041.22
2022-10-05T22:36:41.873Z,100030.19
2022-10-05T22:39:29.059Z,100038.91
2022-10-05T22:42:17.569Z,100037.38
2022-10-05T22:45:05.654Z,100038.19
2022-10-05T22:47:52.704Z,100040.06
2022-10-05T22:50:39.751Z,100040.06
2022-10-05T22:53:27.218Z,100035.84
2022-10-05T22:56:15.322Z,100034.06
2022-10-05T22:59:04.092Z,100042.63
2022-10-05T23:01:51.630Z,100040.06
2022-10-05T23:04:38.513Z,100040.06
2022-10-05T23:07:25.915Z,100038.41
2022-10-05T23:10:16.641Z,100038.41
2022-10-05T23:13:04.976Z,100016.16
2022-10-05T23:15:53.685Z,100033.25
2022-10-05T23:18:41.435Z,100041.13
2022-10-05T23:21:31.225Z,100048.00
2022-10-05T23:24:18.472Z,100048.13
2022-10-05T23:27:05.837Z,100042.16
2022-10-05T23:29:52.806Z,100054.34
2022-10-05T23:32:42.917Z,100062.06
2022-10-05T23:35:30.102Z,100070.75
2022-10-05T23:38:17.316Z,100077.66
2022-10-05T23:41:04.631Z,100078.56
2022-10-05T23:43:51.697Z,100083.72
2022-10-05T23:46:38.873Z,100086.31
2022-10-05T23:49:27.537Z,100078.56
2022-10-05T23:52:14.998Z,100080.34
2022-10-05T23:55:03.333Z,100080.22
2022-10-05T23:57:50.417Z,100076.84
